INDIA METEOROLOGICAL DEPARTMENT, R.M.C. NEW DELHI
Dated:23 - 4 - 2018
METARS OF ALTERNATE AIRPORTS
Delhi      
VIDP 222030Z 31008KT 4000 HZ NSC 27/02 Q1009 NOSIG=
Amritsar   
VIAR 221930Z 00000KT 5000 BR NSC 20/16 Q1010 NOSIG=
Lucknow    
VILK 222000Z 26004KT 2500 HZ NSC 24/07 Q1007 NOSIG=
Jaipur     
VIJP 222000Z 35003KT 2000 HZ NSC 27/01 Q1011 NOSIG=
Ahmedabad  
VAAH 222000Z 00000KT 4000 FU NSC 28/03 Q1008 NOSIG=
Mumbai     
VABB 221830Z 31005KT 3000 HZ NSC 29/23 Q1010 NOSIG=